Terminal Aerodrome Forecast
Issued by NWS Omaha/Valley, NE

Home | Current Version | Previous Version | Graphics & Text | Print | Product List | Glossary On
Versions: 1 2 3 4 5 6 7 8 9 10 11 12 13 14 15 16 17
000
FTUS43 KOAX 150520
TAFOFK
TAF
KOFK 150520Z 1506/1606 24005KT 6SM BR BKN200
     FM151000 30004KT P6SM BKN120
     FM151600 34011KT P6SM SCT120 BKN200
     FM151900 34014G24KT P6SM SCT015 BKN100
     FM152100 34017G25KT P6SM BKN015=

USA.gov is the U.S. government's official web portal to all federal, state and local government web resources and services.